createdAt,value
2018-12-19T07:17:35.123Z,21.70
2018-12-19T07:18:34.343Z,21.70
2018-12-19T07:19:34.307Z,20.60
2018-12-19T07:20:34.275Z,20.60
2018-12-19T07:21:34.245Z,20.90
2018-12-19T07:22:34.215Z,21.40
2018-12-19T07:23:34.183Z,22.60
2018-12-19T07:24:34.152Z,22.20
2018-12-19T07:25:34.123Z,21.60
2018-12-19T07:26:34.092Z,20.20
2018-12-19T07:27:34.118Z,21.20
2018-12-19T07:28:34.035Z,20.00
2018-12-19T07:29:34.000Z,21.10
2018-12-19T07:30:34.022Z,20.90
2018-12-19T07:31:33.940Z,20.90
2018-12-19T07:32:33.909Z,21.70
2018-12-19T07:33:33.879Z,20.40
2018-12-19T07:34:33.849Z,21.10
2018-12-19T07:35:33.821Z,20.70
2018-12-19T07:36:33.789Z,20.70
2018-12-19T07:37:33.760Z,21.10
2018-12-19T07:38:33.730Z,21.40
2018-12-19T07:39:33.700Z,21.40
2018-12-19T07:40:33.670Z,21.00
2018-12-19T07:41:33.640Z,20.90
2018-12-19T07:42:33.610Z,20.50
2018-12-19T07:43:33.581Z,19.90
2018-12-19T07:44:34.301Z,19.90
2018-12-19T07:45:33.521Z,21.80
2018-12-19T07:46:33.491Z,21.30
2018-12-19T07:47:33.461Z,22.40
2018-12-19T07:48:33.431Z,22.20
2018-12-19T07:49:33.401Z,22.10
2018-12-19T07:50:33.371Z,21.70
2018-12-19T07:51:33.345Z,21.40
2018-12-19T07:52:33.312Z,21.90
2018-12-19T07:53:33.282Z,23.90
2018-12-19T07:54:33.252Z,22.70
2018-12-19T07:55:33.223Z,22.80
2018-12-19T07:56:33.192Z,22.80
2018-12-19T07:57:33.163Z,22.70
2018-12-19T07:58:33.134Z,23.70
2018-12-19T07:59:33.103Z,22.60
2018-12-19T08:00:33.072Z,24.40
2018-12-19T08:01:33.046Z,23.10
2018-12-19T08:02:33.015Z,23.30
2018-12-19T08:03:32.985Z,24.30
2018-12-19T08:04:32.954Z,23.50
2018-12-19T08:05:33.675Z,24.60
2018-12-19T08:06:32.895Z,25.80
2018-12-19T08:07:32.865Z,24.00
2018-12-19T08:08:32.835Z,22.50
2018-12-19T08:09:32.805Z,23.90
2018-12-19T08:10:32.777Z,22.80
2018-12-19T08:11:32.747Z,24.00
2018-12-19T08:12:36.025Z,24.20
2018-12-19T08:13:32.685Z,24.20
2018-12-19T08:14:32.656Z,23.70
2018-12-19T08:15:32.626Z,23.90
2018-12-19T08:16:33.346Z,24.00
2018-12-19T08:17:32.565Z,24.20
2018-12-19T08:18:32.544Z,24.10
2018-12-19T08:19:32.506Z,23.90
2018-12-19T08:20:32.475Z,22.40
2018-12-19T08:21:32.446Z,22.90
2018-12-19T08:22:32.416Z,23.10
2018-12-19T08:23:32.388Z,23.30
2018-12-19T08:24:32.357Z,23.60
2018-12-19T08:25:32.326Z,23.60
2018-12-19T08:26:32.296Z,23.80
2018-12-19T08:27:39.022Z,23.50
2018-12-19T08:28:32.236Z,23.30
2018-12-19T08:29:32.206Z,24.10
2018-12-19T08:30:32.177Z,23.90
2018-12-19T08:31:32.147Z,23.20
2018-12-19T08:32:32.117Z,23.40
2018-12-19T08:33:32.087Z,23.00
2018-12-19T08:34:32.056Z,22.80
2018-12-19T08:35:32.029Z,22.40
2018-12-19T08:36:31.997Z,22.20
2018-12-19T08:37:31.967Z,22.10
2018-12-19T08:38:31.938Z,22.80
2018-12-19T08:39:31.908Z,22.30
2018-12-19T08:40:31.877Z,23.00
2018-12-19T08:41:31.848Z,23.40
2018-12-19T08:42:31.818Z,23.20
2018-12-19T08:43:31.789Z,22.90
2018-12-19T08:44:31.764Z,22.70
2018-12-19T08:45:31.730Z,23.60
2018-12-19T08:46:31.699Z,22.70
2018-12-19T08:47:31.669Z,22.70
2018-12-19T08:48:31.641Z,23.70
2018-12-19T08:49:31.610Z,23.10
2018-12-19T08:50:31.580Z,24.50
2018-12-19T08:51:31.555Z,24.70
2018-12-19T08:52:31.520Z,25.10
2018-12-19T08:53:31.490Z,23.70
2018-12-19T08:54:31.460Z,25.40
2018-12-19T08:55:31.435Z,26.60
2018-12-19T08:56:31.401Z,25.50
2018-12-19T08:57:31.371Z,25.20
2018-12-19T08:58:31.342Z,25.90
2018-12-19T08:59:32.814Z,25.80
2018-12-19T09:00:31.283Z,26.30
2018-12-19T09:01:31.253Z,27.60
2018-12-19T09:02:31.223Z,26.20
2018-12-19T09:03:31.194Z,26.40
2018-12-19T09:04:31.164Z,27.30
2018-12-19T09:05:33.385Z,25.70
2018-12-19T09:06:31.105Z,27.40
2018-12-19T09:07:31.079Z,27.00
2018-12-19T09:08:31.045Z,25.80
2018-12-19T09:09:31.867Z,26.00
2018-12-19T09:10:30.987Z,26.50
2018-12-19T09:11:30.955Z,26.50
2018-12-19T09:12:30.924Z,26.60
2018-12-19T09:13:30.895Z,28.30
2018-12-19T09:14:30.870Z,27.80
2018-12-19T09:15:30.836Z,26.90
2018-12-19T09:16:30.806Z,28.30
2018-12-19T09:17:30.778Z,28.90
2018-12-19T09:18:30.746Z,27.20
2018-12-19T09:19:30.716Z,28.70
2018-12-19T09:20:30.685Z,28.50
2018-12-19T09:21:30.655Z,28.00
2018-12-19T09:22:30.625Z,28.70
2018-12-19T09:23:30.598Z,27.90
2018-12-19T09:24:30.565Z,28.70
2018-12-19T09:25:30.538Z,28.40
2018-12-19T09:26:30.506Z,27.10
2018-12-19T09:27:30.477Z,28.30
2018-12-19T09:28:30.445Z,28.30
2018-12-19T09:29:30.415Z,27.20
2018-12-19T09:30:30.387Z,27.80
2018-12-19T09:31:30.357Z,27.90
2018-12-19T09:32:30.325Z,26.10
2018-12-19T09:33:30.296Z,26.20
2018-12-19T09:34:30.266Z,25.70
2018-12-19T09:35:30.237Z,25.90
2018-12-19T09:36:30.205Z,26.20
2018-12-19T09:37:30.176Z,26.40
2018-12-19T09:38:32.452Z,26.00
2018-12-19T09:39:30.116Z,26.10
2018-12-19T09:40:30.086Z,27.10
2018-12-19T09:41:30.056Z,27.20
2018-12-19T09:42:30.026Z,26.60
2018-12-19T09:43:29.998Z,27.70
2018-12-19T09:44:30.717Z,27.00
2018-12-19T09:45:29.936Z,26.20
2018-12-19T09:46:29.906Z,25.20
2018-12-19T09:47:29.879Z,25.60
2018-12-19T09:48:29.856Z,24.50
2018-12-19T09:49:29.817Z,24.10
2018-12-19T09:50:29.787Z,24.80
2018-12-19T09:51:29.758Z,24.40
2018-12-19T09:52:29.727Z,23.60
2018-12-19T09:53:29.698Z,24.60
2018-12-19T09:54:29.669Z,24.00
2018-12-19T09:55:29.638Z,23.90
2018-12-19T09:56:29.609Z,22.50
2018-12-19T09:57:29.579Z,23.70
2018-12-19T09:58:29.550Z,22.50
2018-12-19T09:59:29.525Z,22.60
2018-12-19T10:00:29.490Z,22.30
2018-12-19T10:01:29.461Z,22.70
2018-12-19T10:02:29.431Z,21.80
2018-12-19T10:03:29.402Z,22.20
2018-12-19T10:04:29.373Z,23.70
2018-12-19T10:05:29.342Z,23.20
2018-12-19T10:06:29.314Z,24.00
2018-12-19T10:07:29.815Z,24.00
2018-12-19T10:08:29.255Z,24.70
2018-12-19T10:09:29.225Z,24.80
2018-12-19T10:10:29.196Z,24.70
2018-12-19T10:11:29.167Z,23.90
2018-12-19T10:12:29.138Z,24.90
2018-12-19T10:13:29.107Z,23.50
2018-12-19T10:14:29.086Z,24.40
2018-12-19T10:15:29.050Z,24.50
2018-12-19T10:16:29.021Z,24.70
2018-12-19T10:17:28.991Z,24.80
2018-12-19T10:18:28.963Z,24.80
2018-12-19T10:19:28.932Z,23.80
2018-12-19T10:20:28.909Z,24.90
2018-12-19T10:21:28.873Z,24.10
2018-12-19T10:22:28.844Z,24.70
2018-12-19T10:23:28.814Z,23.80
2018-12-19T10:24:28.785Z,23.20
2018-12-19T10:25:28.755Z,24.30
2018-12-19T10:26:28.728Z,23.00
2018-12-19T10:27:28.698Z,22.70
2018-12-19T10:28:28.667Z,22.60
2018-12-19T10:29:28.639Z,22.80
2018-12-19T10:30:28.610Z,22.40
2018-12-19T10:31:28.581Z,21.90
2018-12-19T10:32:28.551Z,21.80
2018-12-19T10:33:28.523Z,21.70
2018-12-19T10:34:28.493Z,20.80
2018-12-19T10:35:28.465Z,21.30
2018-12-19T10:36:28.435Z,21.10
2018-12-19T10:37:28.407Z,22.20
2018-12-19T10:38:28.378Z,22.60
2018-12-19T10:39:28.349Z,20.90
2018-12-19T10:40:28.322Z,21.90
2018-12-19T10:41:28.291Z,21.20
2018-12-19T10:42:28.263Z,21.80
2018-12-19T10:43:28.246Z,21.10
2018-12-19T10:44:28.205Z,21.30
2018-12-19T10:45:28.176Z,22.30
2018-12-19T10:46:28.215Z,21.40
2018-12-19T10:47:28.119Z,20.70
2018-12-19T10:48:28.090Z,21.40
2018-12-19T10:49:28.062Z,21.30
2018-12-19T10:50:28.035Z,21.10
2018-12-19T10:51:28.006Z,22.30
2018-12-19T10:52:27.976Z,22.20
2018-12-19T10:53:27.949Z,22.90
2018-12-19T10:54:27.924Z,22.70
2018-12-19T10:55:27.892Z,22.80
2018-12-19T10:56:27.863Z,22.80
2018-12-19T10:57:27.835Z,22.70
2018-12-19T10:58:27.806Z,24.50
2018-12-19T10:59:27.778Z,23.00
2018-12-19T11:00:27.748Z,24.40
2018-12-19T11:01:27.720Z,24.10
2018-12-19T11:02:27.692Z,24.70
2018-12-19T11:03:27.663Z,24.80
2018-12-19T11:04:27.636Z,25.10
2018-12-19T11:05:27.605Z,24.70
2018-12-19T11:06:27.577Z,25.20
2018-12-19T11:07:27.549Z,23.50
2018-12-19T11:08:27.519Z,24.50
2018-12-19T11:09:27.492Z,23.50
2018-12-19T11:10:27.463Z,22.80
2018-12-19T11:11:32.298Z,23.00
2018-12-19T11:12:27.403Z,23.40
2018-12-19T11:13:27.377Z,23.60
2018-12-19T11:14:27.346Z,23.10
2018-12-19T11:15:27.317Z,23.60
2018-12-19T11:16:27.287Z,22.90
2018-12-19T11:17:27.258Z,23.70
2018-12-19T11:18:27.229Z,22.60
2018-12-19T11:19:27.201Z,23.10
2018-12-19T11:20:27.172Z,23.40
2018-12-19T11:21:27.143Z,23.90
2018-12-19T11:22:27.114Z,23.40
2018-12-19T11:23:27.084Z,22.90
2018-12-19T11:24:27.055Z,22.50
2018-12-19T11:25:27.046Z,24.00
2018-12-19T11:26:26.998Z,23.30
2018-12-19T11:27:26.969Z,23.00
2018-12-19T11:28:26.939Z,21.80
2018-12-19T11:29:26.917Z,22.90
2018-12-19T11:30:26.882Z,21.90
2018-12-19T11:31:26.853Z,22.90
2018-12-19T11:32:26.826Z,21.60
2018-12-19T11:33:26.795Z,20.30
2018-12-19T11:34:26.767Z,22.00
2018-12-19T11:35:26.738Z,21.50
2018-12-19T11:36:26.708Z,20.80
2018-12-19T11:37:26.680Z,21.90
2018-12-19T11:38:26.651Z,21.40
2018-12-19T11:39:26.627Z,22.50
2018-12-19T11:40:26.592Z,21.90
2018-12-19T11:41:26.564Z,21.80
2018-12-19T11:42:27.287Z,22.50
2018-12-19T11:43:26.507Z,20.90
2018-12-19T11:44:26.478Z,21.60
2018-12-19T11:45:26.449Z,22.70
2018-12-19T11:46:26.421Z,21.00
2018-12-19T11:47:26.392Z,22.10
2018-12-19T11:48:26.366Z,22.90
2018-12-19T11:49:26.337Z,21.90
2018-12-19T11:50:26.308Z,23.10
2018-12-19T11:51:26.278Z,22.00
2018-12-19T11:52:26.248Z,21.70
2018-12-19T11:53:26.224Z,22.20
2018-12-19T11:54:26.193Z,21.80
2018-12-19T11:55:26.163Z,22.00
2018-12-19T11:56:26.132Z,20.50
2018-12-19T11:57:26.103Z,20.50
2018-12-19T11:58:26.076Z,20.80
2018-12-19T11:59:26.050Z,22.10
2018-12-19T12:00:26.022Z,21.80
2018-12-19T12:01:25.992Z,22.10
2018-12-19T12:02:25.962Z,21.70
2018-12-19T12:03:25.933Z,22.30
2018-12-19T12:04:25.907Z,22.40
2018-12-19T12:05:25.877Z,22.30
2018-12-19T12:06:25.883Z,22.20
2018-12-19T12:07:25.819Z,21.90
2018-12-19T12:08:25.792Z,24.00
2018-12-19T12:09:25.763Z,23.80
2018-12-19T12:10:25.733Z,24.10
2018-12-19T12:11:25.705Z,23.40
2018-12-19T12:12:25.680Z,24.30
2018-12-19T12:13:25.704Z,24.80
2018-12-19T12:14:26.370Z,24.00
2018-12-19T12:15:25.590Z,23.90
2018-12-19T12:16:25.560Z,24.00
2018-12-19T12:17:25.532Z,24.00
2018-12-19T12:18:25.503Z,23.70
2018-12-19T12:19:25.475Z,26.80
2018-12-19T12:20:25.445Z,23.70
2018-12-19T12:21:25.418Z,23.50
2018-12-19T12:22:25.388Z,23.90
2018-12-19T12:23:25.395Z,23.70
2018-12-19T12:24:25.330Z,22.90
2018-12-19T12:25:25.305Z,22.60
2018-12-19T12:26:25.273Z,22.60
2018-12-19T12:27:25.245Z,23.50
2018-12-19T12:28:25.215Z,22.00
2018-12-19T12:29:25.191Z,21.70
2018-12-19T12:30:25.160Z,21.70
2018-12-19T12:31:25.130Z,21.90
2018-12-19T12:32:25.099Z,21.50
2018-12-19T12:33:25.073Z,22.30
2018-12-19T12:34:25.042Z,21.00
2018-12-19T12:35:25.015Z,21.70
2018-12-19T12:36:24.986Z,22.00
2018-12-19T12:37:24.960Z,21.50
2018-12-19T12:38:24.928Z,22.00
2018-12-19T12:39:24.900Z,21.20
2018-12-19T12:40:24.870Z,21.60
2018-12-19T12:41:26.346Z,21.90
2018-12-19T12:42:24.813Z,21.60
2018-12-19T12:43:24.786Z,21.50
2018-12-19T12:44:24.757Z,21.70
2018-12-19T12:45:24.727Z,21.50
2018-12-19T12:46:24.699Z,21.70
2018-12-19T12:47:24.671Z,21.60
2018-12-19T12:48:24.641Z,21.70
2018-12-19T12:49:24.613Z,20.90
2018-12-19T12:50:24.584Z,21.70
2018-12-19T12:51:24.557Z,21.30
2018-12-19T12:52:24.527Z,20.80
2018-12-19T12:53:24.499Z,20.10
2018-12-19T12:54:24.478Z,21.20
2018-12-19T12:55:24.442Z,19.60
2018-12-19T12:56:24.413Z,21.40
2018-12-19T12:57:24.386Z,20.20
2018-12-19T12:58:24.358Z,21.30
2018-12-19T12:59:24.328Z,20.60
2018-12-19T13:00:24.299Z,19.80
2018-12-19T13:01:24.271Z,20.40
2018-12-19T13:02:24.243Z,21.80
2018-12-19T13:03:24.215Z,21.70
2018-12-19T13:04:24.186Z,20.20
2018-12-19T13:05:24.158Z,20.50
2018-12-19T13:06:24.130Z,21.00
2018-12-19T13:07:24.102Z,21.30
2018-12-19T13:08:25.574Z,20.70
2018-12-19T13:09:24.045Z,21.00
2018-12-19T13:10:24.016Z,19.90
2018-12-19T13:11:23.989Z,20.00
2018-12-19T13:12:23.959Z,20.50
2018-12-19T13:13:23.931Z,20.70
2018-12-19T13:14:23.908Z,19.90
2018-12-19T13:15:23.878Z,20.70
2018-12-19T13:16:23.846Z,20.90
2018-12-19T13:17:23.819Z,19.90
2018-12-19T13:18:23.796Z,19.50
2018-12-19T13:19:23.763Z,20.80
2018-12-19T13:20:23.733Z,20.40
2018-12-19T13:21:23.706Z,19.60
2018-12-19T13:22:23.678Z,20.10
2018-12-19T13:23:23.650Z,21.10
2018-12-19T13:24:23.621Z,20.70
2018-12-19T13:25:23.597Z,20.60
2018-12-19T13:26:23.564Z,20.30
2018-12-19T13:27:23.537Z,21.10
2018-12-19T13:28:23.508Z,20.30
2018-12-19T13:29:23.479Z,20.40
2018-12-19T13:30:23.452Z,19.40
2018-12-19T13:31:23.423Z,18.60
2018-12-19T13:32:23.394Z,19.50
2018-12-19T13:33:23.368Z,19.60
2018-12-19T13:34:23.339Z,19.80
2018-12-19T13:35:23.310Z,18.90
2018-12-19T13:36:23.281Z,19.00
2018-12-19T13:37:23.254Z,18.50
2018-12-19T13:38:23.225Z,20.60
2018-12-19T13:39:23.197Z,18.90
2018-12-19T13:40:23.168Z,18.40
2018-12-19T13:41:26.142Z,18.40
2018-12-19T13:42:23.110Z,18.80
2018-12-19T13:43:23.083Z,17.70
2018-12-19T13:44:23.059Z,18.70
2018-12-19T13:45:23.027Z,19.00
2018-12-19T13:46:22.999Z,19.90
2018-12-19T13:47:24.472Z,19.10
2018-12-19T13:48:22.942Z,19.50
2018-12-19T13:49:22.914Z,20.30
2018-12-19T13:50:22.887Z,20.30
2018-12-19T13:51:22.859Z,20.30
2018-12-19T13:52:22.830Z,19.40
2018-12-19T13:53:22.803Z,19.60
2018-12-19T13:54:22.775Z,20.40
2018-12-19T13:55:22.749Z,19.90
2018-12-19T13:56:22.719Z,21.20
2018-12-19T13:57:22.691Z,19.90
2018-12-19T13:58:22.663Z,20.80
2018-12-19T13:59:22.636Z,20.20
2018-12-19T14:00:22.607Z,20.40
2018-12-19T14:01:22.580Z,19.90
2018-12-19T14:02:22.553Z,21.80
2018-12-19T14:03:22.524Z,20.00
2018-12-19T14:04:22.494Z,19.00
2018-12-19T14:05:22.468Z,19.10
2018-12-19T14:06:22.440Z,20.00
2018-12-19T14:07:22.412Z,20.20
2018-12-19T14:08:22.385Z,20.60
2018-12-19T14:09:22.356Z,20.50
2018-12-19T14:10:22.329Z,20.10
2018-12-19T14:11:22.300Z,20.30
2018-12-19T14:12:22.271Z,20.90
2018-12-19T14:13:22.244Z,20.90
2018-12-19T14:14:25.971Z,20.20
2018-12-19T14:15:22.188Z,20.10
2018-12-19T14:16:22.159Z,20.70
2018-12-19T14:17:22.132Z,20.90
2018-12-19T14:18:22.104Z,20.70
2018-12-19T14:19:22.075Z,19.90
2018-12-19T14:20:22.797Z,19.60
2018-12-19T14:21:22.019Z,20.20
2018-12-19T14:22:21.990Z,20.90
2018-12-19T14:23:21.964Z,21.00
2018-12-19T14:24:21.933Z,20.70
2018-12-19T14:25:21.907Z,21.50
2018-12-19T14:26:21.879Z,21.60
2018-12-19T14:27:21.850Z,21.70
2018-12-19T14:28:21.822Z,21.40
2018-12-19T14:29:21.793Z,21.10
2018-12-19T14:30:21.765Z,21.60
2018-12-19T14:31:22.488Z,21.20
2018-12-19T14:32:21.708Z,21.60
2018-12-19T14:33:21.680Z,21.80
2018-12-19T14:34:21.652Z,22.20
2018-12-19T14:35:21.624Z,21.70
2018-12-19T14:36:21.595Z,21.90
2018-12-19T14:37:21.566Z,24.00
2018-12-19T14:38:21.538Z,22.30
2018-12-19T14:39:21.512Z,22.60
2018-12-19T14:40:21.483Z,22.70
2018-12-19T14:41:21.453Z,22.70
2018-12-19T14:42:21.424Z,23.20
2018-12-19T14:43:21.396Z,22.80
2018-12-19T14:44:21.366Z,23.10
2018-12-19T14:45:21.338Z,23.90
2018-12-19T14:46:21.309Z,23.50
2018-12-19T14:47:21.281Z,23.50
2018-12-19T14:48:21.252Z,22.70
2018-12-19T14:49:21.223Z,23.00
2018-12-19T14:50:21.195Z,23.80
2018-12-19T14:51:21.168Z,22.40
2018-12-19T14:52:21.136Z,23.90
2018-12-19T14:53:21.107Z,22.90
2018-12-19T14:54:21.080Z,24.00
2018-12-19T14:55:21.052Z,23.60
2018-12-19T14:56:21.020Z,24.00
2018-12-19T14:57:20.992Z,24.10
2018-12-19T14:58:20.962Z,23.40
2018-12-19T14:59:20.935Z,22.10
2018-12-19T15:00:20.904Z,22.80
2018-12-19T15:01:20.875Z,22.60
2018-12-19T15:02:20.846Z,23.60
2018-12-19T15:03:21.568Z,22.60
2018-12-19T15:04:20.787Z,23.10
2018-12-19T15:05:20.758Z,23.50
2018-12-19T15:06:20.729Z,23.90
2018-12-19T15:07:20.701Z,24.00
2018-12-19T15:08:20.670Z,24.40
2018-12-19T15:09:20.643Z,24.50
2018-12-19T15:10:20.612Z,24.00
2018-12-19T15:11:20.583Z,24.80
2018-12-19T15:12:25.764Z,23.50
2018-12-19T15:13:20.523Z,23.00
2018-12-19T15:14:22.746Z,24.10
2018-12-19T15:15:20.468Z,23.80
2018-12-19T15:16:20.435Z,23.70
2018-12-19T15:17:20.406Z,23.20
2018-12-19T15:18:20.376Z,24.00
2018-12-19T15:19:20.348Z,23.00
2018-12-19T15:20:23.319Z,23.40
2018-12-19T15:21:20.290Z,23.50
2018-12-19T15:22:20.258Z,23.80
2018-12-19T15:23:20.229Z,23.30
2018-12-19T15:24:20.198Z,23.90
2018-12-19T15:25:20.169Z,23.90
2018-12-19T15:26:20.892Z,23.40
2018-12-19T15:27:20.111Z,22.60
2018-12-19T15:28:20.081Z,24.00
2018-12-19T15:29:20.052Z,23.20
2018-12-19T15:30:20.022Z,23.30
2018-12-19T15:31:19.993Z,23.20
2018-12-19T15:32:19.963Z,23.00
2018-12-19T15:33:19.935Z,24.10
2018-12-19T15:34:19.907Z,22.00
2018-12-19T15:35:19.876Z,21.90
2018-12-19T15:36:19.846Z,23.30
2018-12-19T15:37:19.815Z,22.20
2018-12-19T15:38:19.786Z,22.00
2018-12-19T15:39:19.757Z,21.50
2018-12-19T15:40:19.727Z,22.00
2018-12-19T15:41:19.699Z,21.50
2018-12-19T15:42:19.670Z,21.70
2018-12-19T15:43:19.647Z,20.90
2018-12-19T15:44:19.609Z,21.70
2018-12-19T15:45:19.580Z,21.80
2018-12-19T15:46:19.551Z,20.30
2018-12-19T15:47:19.524Z,20.70
2018-12-19T15:48:19.492Z,20.40
2018-12-19T15:49:19.468Z,20.70
2018-12-19T15:50:19.433Z,20.90
2018-12-19T15:51:19.403Z,18.90
2018-12-19T15:52:19.374Z,18.20
2018-12-19T15:53:19.345Z,19.60
2018-12-19T15:54:19.315Z,19.00
2018-12-19T15:55:19.289Z,18.20
2018-12-19T15:56:19.256Z,18.20
2018-12-19T15:57:19.227Z,18.20
2018-12-19T15:58:19.197Z,17.60
2018-12-19T15:59:19.169Z,18.90
2018-12-19T16:00:19.138Z,18.60
2018-12-19T16:01:19.109Z,17.60
2018-12-19T16:02:19.080Z,18.80
2018-12-19T16:03:19.051Z,20.40
2018-12-19T16:04:19.021Z,19.00
2018-12-19T16:05:18.991Z,19.90
2018-12-19T16:06:18.963Z,19.90
2018-12-19T16:07:18.935Z,20.60
2018-12-19T16:08:21.906Z,21.00
2018-12-19T16:09:18.875Z,21.50
2018-12-19T16:10:18.847Z,20.20
2018-12-19T16:11:18.817Z,20.70
2018-12-19T16:12:18.791Z,21.00
2018-12-19T16:13:18.758Z,20.70
2018-12-19T16:14:18.729Z,21.80
2018-12-19T16:15:18.700Z,22.00
2018-12-19T16:16:18.670Z,21.40
2018-12-19T16:17:18.641Z,21.40
2018-12-19T16:18:18.613Z,22.00
2018-12-19T16:19:18.585Z,21.80
2018-12-19T16:20:18.553Z,21.50
2018-12-19T16:21:18.524Z,21.90
2018-12-19T16:22:18.495Z,21.90
2018-12-19T16:23:18.467Z,21.80
2018-12-19T16:24:18.437Z,21.00
2018-12-19T16:25:19.158Z,21.90
2018-12-19T16:26:18.378Z,21.40
2018-12-19T16:27:18.349Z,22.60
2018-12-19T16:28:18.319Z,21.40
2018-12-19T16:29:18.290Z,23.20
2018-12-19T16:30:18.259Z,21.10
2018-12-19T16:31:18.236Z,22.00
2018-12-19T16:32:18.202Z,21.50
2018-12-19T16:33:18.173Z,21.50
2018-12-19T16:34:18.143Z,21.10
2018-12-19T16:35:18.114Z,21.50
2018-12-19T16:36:18.084Z,20.70
2018-12-19T16:37:18.055Z,19.80
2018-12-19T16:38:18.406Z,19.90
2018-12-19T16:39:17.997Z,20.20
2018-12-19T16:40:17.966Z,19.50
2018-12-19T16:41:18.688Z,18.80
2018-12-19T16:42:17.914Z,18.60
2018-12-19T16:43:17.880Z,18.60
2018-12-19T16:44:17.849Z,17.60
2018-12-19T16:45:17.820Z,17.60
2018-12-19T16:46:17.791Z,17.40
2018-12-19T16:47:17.762Z,17.40
2018-12-19T16:48:17.733Z,17.80
2018-12-19T16:49:17.703Z,18.40
2018-12-19T16:50:17.674Z,18.00
2018-12-19T16:51:17.671Z,17.30
2018-12-19T16:52:17.614Z,17.60
2018-12-19T16:53:17.585Z,16.60
2018-12-19T16:54:17.556Z,16.70
2018-12-19T16:55:17.527Z,17.60
2018-12-19T16:56:17.497Z,17.80
2018-12-19T16:57:17.469Z,18.80
2018-12-19T16:58:17.480Z,18.00
2018-12-19T16:59:17.414Z,16.70
2018-12-19T17:00:17.382Z,16.90
2018-12-19T17:01:17.353Z,18.60
2018-12-19T17:02:17.322Z,17.80
2018-12-19T17:03:22.548Z,17.70
2018-12-19T17:04:17.266Z,18.10
2018-12-19T17:05:17.236Z,19.10
2018-12-19T17:06:17.207Z,19.30
2018-12-19T17:07:17.180Z,17.20
2018-12-19T17:08:17.152Z,17.10
2018-12-19T17:09:17.120Z,18.10
2018-12-19T17:10:17.092Z,19.90
2018-12-19T17:11:17.064Z,19.40
2018-12-19T17:12:17.034Z,19.20
2018-12-19T17:13:17.005Z,16.70
2018-12-19T17:14:16.981Z,17.70
2018-12-19T17:15:16.948Z,19.90
2018-12-19T17:16:16.916Z,19.10
2018-12-19T17:17:16.890Z,18.60
2018-12-19T17:18:16.864Z,18.50
2018-12-19T17:19:16.830Z,17.00
2018-12-19T17:20:16.800Z,17.30
2018-12-19T17:21:16.776Z,18.30
2018-12-19T17:22:16.745Z,22.10
2018-12-19T17:23:16.714Z,18.00
2018-12-19T17:24:16.687Z,19.30
2018-12-19T17:25:16.655Z,16.10
2018-12-19T17:26:16.627Z,16.10
2018-12-19T17:27:16.601Z,15.00
2018-12-19T17:28:16.568Z,16.80
2018-12-19T17:29:16.540Z,14.30
2018-12-19T17:30:16.514Z,16.60
2018-12-19T17:31:16.482Z,12.80
2018-12-19T17:32:16.452Z,13.40
2018-12-19T17:33:16.427Z,14.30
2018-12-19T17:34:16.394Z,11.70
2018-12-19T17:35:16.377Z,10.80
2018-12-19T17:36:16.336Z,11.90
2018-12-19T17:37:16.307Z,12.00
2018-12-19T17:38:16.278Z,10.80
2018-12-19T17:39:16.249Z,11.90
2018-12-19T17:40:16.220Z,11.00
2018-12-19T17:41:18.443Z,10.20
2018-12-19T17:42:16.168Z,9.60
2018-12-19T17:43:16.134Z,8.40
2018-12-19T17:44:16.109Z,8.70
2018-12-19T17:45:16.078Z,7.40
2018-12-19T17:46:16.048Z,7.10
2018-12-19T17:47:16.017Z,8.50
2018-12-19T17:48:15.987Z,8.00
2018-12-19T17:49:15.959Z,7.20
2018-12-19T17:50:15.934Z,7.90
2018-12-19T17:51:15.904Z,6.50
2018-12-19T17:52:15.872Z,7.10
2018-12-19T17:53:15.843Z,6.30
2018-12-19T17:54:15.814Z,6.80
2018-12-19T17:55:15.785Z,7.00
2018-12-19T17:56:15.757Z,6.10
2018-12-19T17:57:15.726Z,6.70
2018-12-19T17:58:15.698Z,6.40
2018-12-19T17:59:15.670Z,6.50
2018-12-19T18:00:15.639Z,6.80
2018-12-19T18:01:15.611Z,6.40
2018-12-19T18:02:15.582Z,6.50
2018-12-19T18:03:18.558Z,6.10
2018-12-19T18:04:15.525Z,6.60
2018-12-19T18:05:16.145Z,6.80
2018-12-19T18:06:15.468Z,6.50
2018-12-19T18:07:15.438Z,6.90
2018-12-19T18:08:15.410Z,6.50
2018-12-19T18:09:15.381Z,6.40
2018-12-19T18:10:15.352Z,6.10
2018-12-19T18:11:15.323Z,6.20
2018-12-19T18:12:15.293Z,6.20
2018-12-19T18:13:15.265Z,6.60
2018-12-19T18:14:15.237Z,6.30
2018-12-19T18:15:15.208Z,7.10
2018-12-19T18:16:15.178Z,8.30
2018-12-19T18:17:15.151Z,9.30
2018-12-19T18:18:15.122Z,10.50
2018-12-19T18:19:15.094Z,8.90
2018-12-19T18:20:15.064Z,8.10
2018-12-19T18:21:15.036Z,7.70
2018-12-19T18:22:15.008Z,8.20
2018-12-19T18:23:14.979Z,8.40
2018-12-19T18:24:14.950Z,9.20
2018-12-19T18:25:14.922Z,8.50
2018-12-19T18:26:14.893Z,8.60
2018-12-19T18:27:14.868Z,8.70
2018-12-19T18:28:14.836Z,7.80
2018-12-19T18:29:14.808Z,8.40
2018-12-19T18:30:14.780Z,9.20
2018-12-19T18:31:14.751Z,10.20
2018-12-19T18:32:14.738Z,12.40
2018-12-19T18:33:14.696Z,12.40
2018-12-19T18:34:14.666Z,10.70
2018-12-19T18:35:14.637Z,11.30
2018-12-19T18:36:14.608Z,12.00
2018-12-19T18:37:14.580Z,13.30
2018-12-19T18:38:14.553Z,12.60
2018-12-19T18:39:14.525Z,13.80
2018-12-19T18:40:14.495Z,13.70
2018-12-19T18:41:14.465Z,17.60
2018-12-19T18:42:14.438Z,32.10
2018-12-19T18:43:14.410Z,28.00
2018-12-19T18:44:14.383Z,45.00
2018-12-19T18:45:14.352Z,34.30
2018-12-19T18:46:14.324Z,28.00
2018-12-19T18:47:14.296Z,20.00
2018-12-19T18:48:14.267Z,14.40
2018-12-19T18:49:14.238Z,12.00
2018-12-19T18:50:14.209Z,15.30
2018-12-19T18:51:14.182Z,18.00
2018-12-19T18:52:14.153Z,14.70
2018-12-19T18:53:14.126Z,12.60
2018-12-19T18:54:14.097Z,13.20
2018-12-19T18:55:14.069Z,12.70
2018-12-19T18:56:14.039Z,13.90
2018-12-19T18:57:14.011Z,14.20
2018-12-19T18:58:13.984Z,14.10
2018-12-19T18:59:13.954Z,14.00
2018-12-19T19:00:13.924Z,13.60
2018-12-19T19:01:13.925Z,13.80
2018-12-19T19:02:13.882Z,12.50
2018-12-19T19:03:15.147Z,11.00
2018-12-19T19:04:13.871Z,11.70
2018-12-19T19:05:13.785Z,12.60
2018-12-19T19:06:13.802Z,11.70
2018-12-19T19:07:13.780Z,11.00
2018-12-19T19:08:13.755Z,9.00
2018-12-19T19:09:13.670Z,9.30
2018-12-19T19:10:13.641Z,10.10
2018-12-19T19:11:13.614Z,9.80
2018-12-19T19:12:13.584Z,9.30
2018-12-19T19:13:19.503Z,9.10
2018-12-19T19:14:13.528Z,10.50
2018-12-19T19:15:13.500Z,11.30
2018-12-19T19:16:13.472Z,11.60
2018-12-19T19:17:13.444Z,11.50
2018-12-19T19:18:13.416Z,11.80
2018-12-19T19:19:14.138Z,12.50
2018-12-19T19:20:13.358Z,10.50
2018-12-19T19:21:13.331Z,12.10
2018-12-19T19:22:13.304Z,11.60
2018-12-19T19:23:13.275Z,11.10
2018-12-19T19:24:13.245Z,10.90
2018-12-19T19:25:13.217Z,11.20
2018-12-19T19:26:13.189Z,11.60
2018-12-19T19:27:13.164Z,11.10
2018-12-19T19:28:13.132Z,10.50
2018-12-19T19:29:13.104Z,10.10
2018-12-19T19:30:13.077Z,13.10
2018-12-19T19:31:13.047Z,10.80
2018-12-19T19:32:13.022Z,9.90
2018-12-19T19:33:12.992Z,8.80
2018-12-19T19:34:12.964Z,9.70
2018-12-19T19:35:12.939Z,10.70
2018-12-19T19:36:12.908Z,9.30
2018-12-19T19:37:12.880Z,9.60
2018-12-19T19:38:12.851Z,9.10
2018-12-19T19:39:12.823Z,10.10
2018-12-19T19:40:12.796Z,8.60
2018-12-19T19:41:12.766Z,9.00
2018-12-19T19:42:12.738Z,9.10
2018-12-19T19:43:12.710Z,9.00
2018-12-19T19:44:12.681Z,9.80
2018-12-19T19:45:12.653Z,10.00
2018-12-19T19:46:12.625Z,10.30
2018-12-19T19:47:12.597Z,10.40
2018-12-19T19:48:12.568Z,10.20
2018-12-19T19:49:12.540Z,9.70
2018-12-19T19:50:12.512Z,9.70
2018-12-19T19:51:16.967Z,9.20
2018-12-19T19:52:12.455Z,9.30
2018-12-19T19:53:12.427Z,9.90
2018-12-19T19:54:12.401Z,9.60
2018-12-19T19:55:12.371Z,10.20
2018-12-19T19:56:12.342Z,10.10
2018-12-19T19:57:12.323Z,9.10
2018-12-19T19:58:12.286Z,9.40
2018-12-19T19:59:12.258Z,9.10
2018-12-19T20:00:12.232Z,9.30
2018-12-19T20:01:12.201Z,9.20
2018-12-19T20:02:12.173Z,9.00
2018-12-19T20:03:12.146Z,9.00
2018-12-19T20:04:12.116Z,9.00
2018-12-19T20:05:12.088Z,9.10
2018-12-19T20:06:12.060Z,9.40
2018-12-19T20:07:12.032Z,9.60
2018-12-19T20:08:12.003Z,9.60
2018-12-19T20:09:11.975Z,9.70
2018-12-19T20:10:11.947Z,9.70
2018-12-19T20:11:11.919Z,9.80
2018-12-19T20:12:11.890Z,9.90